Time;durP1;ratioP1;P1;durP2;ratioP2;P2;SDS_P1;SDS_P2;PMS_P1;PMS_P2;Temp;Humidity;BMP_temperature;BMP_pressure;BME280_temperature;BME280_humidity;BME280_pressure;Samples;Min_cycle;Max_cycle;Signal;HPM_P1;HPM_P2
2023/09/12 00:00:49;;;;;;;7.28;4.32;;;24.20;76.50;;;;;;5066381;28;20150;-67
2023/09/12 00:03:20;;;;;;;7.55;4.20;;;24.20;76.50;;;;;;5067205;28;20032;-66
2023/09/12 00:05:53;;;;;;;6.38;3.80;;;24.20;76.40;;;;;;5063715;28;20029;-67
2023/09/12 00:08:19;;;;;;;7.25;4.40;;;24.20;76.40;;;;;;5063698;28;20479;-67
2023/09/12 00:10:44;;;;;;;4.72;2.90;;;24.20;76.50;;;;;;5070107;28;20024;-67
2023/09/12 00:13:10;;;;;;;8.75;3.28;;;24.20;76.40;;;;;;5062952;28;20086;-67
2023/09/12 00:15:36;;;;;;;7.07;3.90;;;24.20;76.30;;;;;;5065620;28;20032;-67
2023/09/12 00:18:02;;;;;;;8.15;5.45;;;24.20;76.20;;;;;;5057404;28;20060;-67
2023/09/12 00:20:28;;;;;;;8.30;3.60;;;24.20;76.40;;;;;;5064123;28;20024;-67
2023/09/12 00:22:54;;;;;;;10.32;5.07;;;24.20;76.50;;;;;;5065028;28;20033;-67
2023/09/12 00:25:20;;;;;;;10.35;4.75;;;24.10;76.60;;;;;;5068155;28;20518;-67
2023/09/12 00:27:46;;;;;;;8.95;5.32;;;24.10;76.70;;;;;;5068801;28;20033;-66
2023/09/12 00:30:13;;;;;;;6.65;4.15;;;24.00;76.70;;;;;;5050543;28;20039;-68
2023/09/12 00:32:39;;;;;;;9.93;5.00;;;24.00;77.00;;;;;;5064630;28;20486;-67
2023/09/12 00:35:05;;;;;;;8.50;4.95;;;23.90;77.20;;;;;;5070563;28;20103;-66
2023/09/12 00:37:30;;;;;;;9.05;5.00;;;23.90;77.30;;;;;;5061790;28;20033;-67
2023/09/12 00:39:56;;;;;;;8.02;5.07;;;23.80;77.40;;;;;;5070711;28;20039;-67
2023/09/12 00:42:25;;;;;;;10.02;5.38;;;23.80;77.60;;;;;;5066251;28;20450;-67
2023/09/12 00:44:51;;;;;;;9.13;5.45;;;23.80;77.70;;;;;;5071462;28;20024;-67
2023/09/12 00:47:17;;;;;;;7.55;4.07;;;23.70;77.70;;;;;;5051009;28;20399;-67
2023/09/12 00:49:44;;;;;;;12.35;5.10;;;23.70;77.70;;;;;;5069114;28;20140;-67
2023/09/12 00:52:11;;;;;;;9.40;5.00;;;23.70;78.00;;;;;;5065505;28;20181;-67
2023/09/12 00:54:36;;;;;;;7.22;4.03;;;23.70;78.10;;;;;;5068286;28;20052;-67
2023/09/12 00:57:02;;;;;;;6.78;4.25;;;23.70;78.10;;;;;;5060621;28;20056;-67
2023/09/12 00:59:28;;;;;;;6.32;3.55;;;23.70;77.90;;;;;;5070051;28;20035;-67
2023/09/12 01:01:54;;;;;;;7.63;4.13;;;23.70;77.80;;;;;;5066796;28;20036;-67
2023/09/12 01:04:20;;;;;;;5.32;3.28;;;23.70;77.60;;;;;;5064356;28;20029;-67
2023/09/12 01:06:48;;;;;;;4.22;2.53;;;23.70;77.30;;;;;;5030082;28;20037;-67
2023/09/12 01:09:13;;;;;;;7.18;4.10;;;23.70;77.10;;;;;;5067985;28;20035;-68
2023/09/12 01:11:40;;;;;;;6.18;3.70;;;23.70;76.90;;;;;;5058310;28;20029;-67
2023/09/12 01:14:06;;;;;;;6.00;3.60;;;23.70;76.90;;;;;;5041806;28;20025;-67
2023/09/12 01:16:32;;;;;;;9.77;2.90;;;23.60;76.90;;;;;;5060345;28;20479;-67
2023/09/12 01:18:58;;;;;;;5.03;2.75;;;23.60;76.90;;;;;;5055078;28;20037;-67
2023/09/12 01:21:56;;;;;;;4.85;2.80;;;23.60;76.90;;;;;;5043854;28;20047;-67
2023/09/12 01:24:57;;;;;;;7.43;4.35;;;23.60;76.80;;;;;;5067162;28;20025;-67
2023/09/12 01:27:33;;;;;;;5.78;4.05;;;23.50;76.80;;;;;;5061786;28;20534;-67
2023/09/12 01:30:03;;;;;;;4.18;2.55;;;23.40;76.90;;;;;;5061736;28;20048;-67
2023/09/12 01:32:31;;;;;;;6.32;3.75;;;23.40;77.00;;;;;;5063003;28;20040;-67
2023/09/12 01:34:57;;;;;;;5.43;3.10;;;23.30;77.00;;;;;;5041642;28;20028;-67
2023/09/12 01:37:22;;;;;;;8.85;3.70;;;23.20;76.90;;;;;;5045694;28;20040;-67
2023/09/12 01:39:48;;;;;;;5.55;3.42;;;23.20;76.80;;;;;;5066262;28;20067;-67
2023/09/12 01:42:18;;;;;;;5.05;3.45;;;23.20;76.70;;;;;;5064270;28;20024;-67
2023/09/12 01:44:45;;;;;;;6.38;3.13;;;23.20;76.60;;;;;;5059087;28;20043;-67
2023/09/12 01:47:12;;;;;;;4.80;3.35;;;23.10;76.60;;;;;;5064229;28;20021;-67
2023/09/12 01:49:42;;;;;;;6.57;3.17;;;23.10;76.70;;;;;;5061257;28;20056;-67
2023/09/12 01:52:09;;;;;;;4.50;3.20;;;23.10;76.60;;;;;;5063714;28;20016;-67
2023/09/12 01:54:36;;;;;;;5.45;3.08;;;23.10;76.60;;;;;;5066360;28;20472;-67
2023/09/12 01:57:03;;;;;;;5.72;2.78;;;23.10;76.50;;;;;;5064650;28;20432;-67
2023/09/12 01:59:29;;;;;;;6.63;3.55;;;23.00;76.30;;;;;;5044816;28;20087;-67
2023/09/12 02:01:55;;;;;;;4.90;3.17;;;23.00;76.40;;;;;;5059052;28;20479;-67
2023/09/12 02:04:21;;;;;;;3.60;2.50;;;22.90;76.40;;;;;;5061693;28;20035;-67
2023/09/12 02:06:46;;;;;;;5.82;3.55;;;22.90;76.30;;;;;;5056576;28;20055;-67
2023/09/12 02:09:12;;;;;;;5.15;3.45;;;22.90;76.30;;;;;;5064780;28;20152;-67
2023/09/12 02:11:38;;;;;;;4.30;2.88;;;22.80;76.40;;;;;;5048717;28;20029;-67
2023/09/12 02:14:03;;;;;;;5.00;3.60;;;22.80;76.40;;;;;;5069410;28;20037;-67
2023/09/12 02:16:31;;;;;;;4.95;2.95;;;22.80;76.50;;;;;;5064419;28;20042;-67
2023/09/12 02:18:56;;;;;;;4.75;2.67;;;22.70;76.50;;;;;;5059827;28;20535;-67
2023/09/12 02:21:22;;;;;;;6.35;3.95;;;22.70;76.50;;;;;;5069108;28;20061;-67
2023/09/12 02:23:48;;;;;;;5.30;4.00;;;22.70;76.50;;;;;;5063689;28;20097;-67
2023/09/12 02:26:13;;;;;;;7.15;3.40;;;22.60;76.50;;;;;;5073423;28;20032;-66
2023/09/12 02:28:39;;;;;;;3.88;2.78;;;22.60;76.50;;;;;;5063643;28;20422;-67
2023/09/12 02:31:11;;;;;;;5.22;3.00;;;22.60;76.40;;;;;;5044574;28;20521;-67
2023/09/12 02:33:38;;;;;;;6.47;3.53;;;22.60;76.30;;;;;;5070027;28;20338;-67
2023/09/12 02:36:04;;;;;;;5.55;3.92;;;22.50;76.30;;;;;;5063777;28;20108;-67
2023/09/12 02:38:30;;;;;;;6.60;4.00;;;22.50;76.40;;;;;;5062774;28;20017;-67
2023/09/12 02:40:56;;;;;;;5.97;2.53;;;22.40;76.40;;;;;;5065123;28;20028;-67
2023/09/12 02:43:22;;;;;;;6.60;3.55;;;22.40;76.40;;;;;;5069878;28;20025;-67
2023/09/12 02:45:47;;;;;;;5.88;3.63;;;22.40;76.30;;;;;;5069680;28;20492;-67
2023/09/12 02:48:13;;;;;;;6.28;3.17;;;22.40;76.40;;;;;;5066906;28;20510;-67
2023/09/12 02:50:39;;;;;;;5.60;3.15;;;22.30;76.30;;;;;;5061365;28;20120;-67
2023/09/12 02:53:06;;;;;;;4.10;2.72;;;22.30;76.40;;;;;;5046853;28;20029;-66
2023/09/12 02:55:32;;;;;;;6.78;3.60;;;22.30;76.50;;;;;;5065540;28;20021;-67
2023/09/12 02:57:57;;;;;;;4.75;3.25;;;22.20;76.40;;;;;;5058153;28;20033;-67
2023/09/12 03:00:23;;;;;;;4.25;2.50;;;22.20;76.40;;;;;;5068111;28;20036;-67
2023/09/12 03:02:49;;;;;;;6.43;3.45;;;22.20;76.50;;;;;;5071956;28;20040;-67
2023/09/12 03:05:14;;;;;;;5.40;3.70;;;22.20;76.50;;;;;;5066714;28;20407;-67
2023/09/12 03:07:40;;;;;;;5.15;3.40;;;22.10;76.40;;;;;;5057719;28;20056;-67
2023/09/12 03:10:06;;;;;;;5.20;3.22;;;22.10;76.40;;;;;;5068622;28;20390;-67
2023/09/12 03:12:32;;;;;;;3.53;2.38;;;22.10;76.40;;;;;;5039732;28;20029;-67
2023/09/12 03:14:57;;;;;;;7.20;2.83;;;22.10;76.40;;;;;;5063772;28;20498;-67
2023/09/12 03:17:23;;;;;;;3.08;2.22;;;22.00;76.40;;;;;;5067165;28;20388;-67
2023/09/12 03:19:49;;;;;;;4.18;2.75;;;22.00;76.30;;;;;;5062062;28;20028;-67
2023/09/12 03:22:15;;;;;;;5.72;3.28;;;22.00;76.30;;;;;;5057394;28;20025;-67
2023/09/12 03:24:41;;;;;;;6.38;3.40;;;22.00;76.40;;;;;;5063401;28;20112;-67
2023/09/12 03:27:07;;;;;;;5.82;2.78;;;21.90;76.40;;;;;;5062836;28;20029;-67
2023/09/12 03:29:33;;;;;;;3.42;2.60;;;21.90;76.50;;;;;;5060819;28;20041;-67
2023/09/12 03:31:59;;;;;;;3.70;2.72;;;21.90;76.40;;;;;;5066391;28;20495;-67
2023/09/12 03:34:24;;;;;;;5.03;2.85;;;21.90;76.40;;;;;;5044513;28;20480;-67
2023/09/12 03:36:50;;;;;;;5.03;3.22;;;21.90;76.40;;;;;;5045044;28;20028;-67
2023/09/12 03:39:16;;;;;;;5.45;3.28;;;21.90;76.40;;;;;;5044427;28;20033;-67
2023/09/12 03:41:41;;;;;;;5.10;3.15;;;21.80;76.30;;;;;;5069455;28;20111;-67
2023/09/12 03:44:08;;;;;;;5.32;3.40;;;21.80;76.30;;;;;;5060784;28;20032;-67
2023/09/12 03:46:33;;;;;;;4.55;3.08;;;21.80;76.40;;;;;;5063987;28;20041;-67
2023/09/12 03:48:59;;;;;;;5.43;3.03;;;21.80;76.60;;;;;;5060444;28;20033;-67
2023/09/12 03:51:25;;;;;;;3.97;2.80;;;21.70;76.60;;;;;;5056606;28;20048;-67
2023/09/12 03:53:51;;;;;;;3.90;2.28;;;21.70;77.20;;;;;;5037917;28;20032;-67
2023/09/12 03:56:19;;;;;;;4.18;2.70;;;21.70;76.60;;;;;;5055581;28;20511;-66
2023/09/12 03:58:45;;;;;;;3.85;2.30;;;21.80;76.80;;;;;;5055551;28;20039;-67
2023/09/12 04:01:11;;;;;;;4.75;2.42;;;21.70;76.70;;;;;;5061171;28;20043;-67
2023/09/12 04:03:37;;;;;;;7.15;3.55;;;21.70;76.70;;;;;;5064709;28;20472;-67
2023/09/12 04:06:02;;;;;;;3.78;2.35;;;21.80;76.90;;;;;;5061877;28;20389;-66
2023/09/12 04:08:28;;;;;;;4.68;3.97;;;21.80;76.90;;;;;;5056815;28;20029;-67
2023/09/12 04:10:54;;;;;;;5.10;2.78;;;21.80;77.10;;;;;;5022563;28;20035;-67
2023/09/12 04:13:20;;;;;;;5.45;3.00;;;21.80;77.20;;;;;;5061524;28;20926;-67
2023/09/12 04:15:45;;;;;;;5.22;2.58;;;21.80;77.20;;;;;;5060730;28;20029;-67
2023/09/12 04:18:11;;;;;;;4.43;3.22;;;21.80;77.30;;;;;;5055389;28;20412;-66
2023/09/12 04:20:36;;;;;;;4.80;3.42;;;21.90;77.50;;;;;;5056581;28;20063;-67
2023/09/12 04:23:03;;;;;;;5.82;3.20;;;21.90;77.50;;;;;;5054973;28;20040;-66
2023/09/12 04:25:30;;;;;;;6.28;3.85;;;21.80;77.50;;;;;;5058019;28;20083;-67
2023/09/12 04:27:55;;;;;;;4.28;2.90;;;21.80;77.80;;;;;;5057504;28;20388;-67
2023/09/12 04:30:21;;;;;;;5.07;2.97;;;21.80;77.80;;;;;;5053610;28;20079;-67
2023/09/12 04:32:47;;;;;;;7.28;4.03;;;21.90;77.90;;;;;;5061736;28;20082;-67
2023/09/12 04:35:13;;;;;;;6.05;4.05;;;21.90;77.90;;;;;;5058239;28;20016;-67
2023/09/12 04:37:38;;;;;;;9.60;5.18;;;21.90;78.00;;;;;;5058417;28;20033;-67
2023/09/12 04:40:06;;;;;;;7.88;4.60;;;21.90;78.20;;;;;;5061152;28;20496;-66
2023/09/12 04:42:32;;;;;;;5.90;3.45;;;21.90;78.20;;;;;;5058778;28;20047;-67
2023/09/12 04:44:58;;;;;;;6.90;3.53;;;22.00;78.20;;;;;;5058982;28;20029;-67
2023/09/12 04:47:23;;;;;;;11.05;4.90;;;22.00;78.30;;;;;;5047882;28;20067;-67
2023/09/12 04:49:49;;;;;;;7.43;4.20;;;22.00;78.30;;;;;;5053981;28;20123;-67
2023/09/12 04:52:15;;;;;;;12.00;4.78;;;22.00;78.40;;;;;;5052481;28;20025;-67
2023/09/12 04:54:40;;;;;;;7.07;4.45;;;22.00;78.60;;;;;;5049867;28;20053;-67
2023/09/12 04:57:07;;;;;;;9.43;5.72;;;22.00;78.80;;;;;;5053140;28;20132;-67
2023/09/12 04:59:33;;;;;;;8.23;4.38;;;22.00;79.10;;;;;;5054520;28;20128;-67
2023/09/12 05:01:59;;;;;;;7.10;4.03;;;21.90;79.50;;;;;;5040776;28;20144;-67
2023/09/12 05:04:24;;;;;;;11.05;4.60;;;21.90;79.70;;;;;;5040964;28;20032;-66
2023/09/12 05:06:50;;;;;;;9.85;4.80;;;22.00;79.70;;;;;;5041824;28;20035;-67
2023/09/12 05:09:16;;;;;;;8.73;4.13;;;22.00;79.70;;;;;;5052145;28;20021;-67
2023/09/12 05:11:42;;;;;;;7.93;5.13;;;22.00;79.60;;;;;;5055311;28;20056;-67
2023/09/12 05:14:07;;;;;;;10.40;4.63;;;22.10;79.60;;;;;;5062639;28;20025;-66
2023/09/12 05:16:33;;;;;;;7.35;4.47;;;22.10;79.50;;;;;;5064328;28;20055;-67
2023/09/12 05:18:59;;;;;;;11.77;5.28;;;22.10;79.40;;;;;;5059657;28;20041;-66
2023/09/12 05:21:25;;;;;;;10.63;5.00;;;22.20;79.60;;;;;;5037545;28;20040;-67
2023/09/12 05:23:51;;;;;;;11.00;5.60;;;22.20;79.90;;;;;;5062328;28;20573;-67
2023/09/12 05:26:19;;;;;;;12.07;6.38;;;22.20;80.00;;;;;;5063864;28;20037;-67
2023/09/12 05:28:45;;;;;;;9.02;4.53;;;22.30;80.10;;;;;;5054446;28;20032;-67
2023/09/12 05:31:10;;;;;;;11.18;5.88;;;22.30;80.10;;;;;;5052174;28;20387;-67
2023/09/12 05:33:36;;;;;;;13.32;6.15;;;22.30;80.00;;;;;;5052689;28;20101;-67
2023/09/12 05:36:03;;;;;;;11.40;6.07;;;22.30;80.10;;;;;;5054915;28;20032;-67
2023/09/12 05:38:28;;;;;;;9.85;5.45;;;22.40;80.40;;;;;;5058697;28;20399;-67
2023/09/12 05:40:54;;;;;;;9.10;5.15;;;22.40;80.60;;;;;;5039640;28;20036;-67
2023/09/12 05:43:20;;;;;;;11.30;6.32;;;22.40;80.50;;;;;;5052710;28;20541;-67
2023/09/12 05:45:45;;;;;;;14.43;6.40;;;22.40;80.60;;;;;;5053756;28;20043;-67
2023/09/12 05:48:11;;;;;;;9.50;5.60;;;22.40;80.60;;;;;;5061904;28;20036;-68
2023/09/12 05:50:37;;;;;;;18.38;8.13;;;22.40;80.80;;;;;;5052925;28;20033;-67
2023/09/12 05:53:03;;;;;;;12.45;6.88;;;22.40;81.00;;;;;;5053235;28;20510;-67
2023/09/12 05:55:28;;;;;;;12.57;6.10;;;22.40;81.20;;;;;;5049573;28;20037;-67
2023/09/12 05:57:54;;;;;;;9.57;5.43;;;22.50;81.30;;;;;;5053583;28;20036;-67
2023/09/12 06:00:20;;;;;;;13.18;7.95;;;22.40;81.10;;;;;;5056363;28;20365;-67
2023/09/12 06:02:47;;;;;;;10.90;6.28;;;22.50;81.20;;;;;;5035726;28;20048;-67
2023/09/12 06:05:14;;;;;;;11.77;6.00;;;22.50;81.20;;;;;;5053660;28;20063;-67
2023/09/12 06:07:41;;;;;;;13.25;6.85;;;22.50;81.00;;;;;;5042980;28;20129;-67
2023/09/12 06:10:10;;;;;;;15.07;8.30;;;22.60;81.10;;;;;;5062828;28;20016;-68
2023/09/12 06:12:38;;;;;;;10.48;5.65;;;22.60;81.30;;;;;;5054004;28;20420;-68
2023/09/12 06:15:05;;;;;;;12.75;7.93;;;22.50;81.40;;;;;;5054690;28;20040;-67
2023/09/12 06:17:31;;;;;;;15.82;8.13;;;22.60;81.70;;;;;;5058856;28;20058;-67
2023/09/12 06:19:57;;;;;;;16.90;7.57;;;22.60;81.90;;;;;;5045642;28;20037;-69
2023/09/12 06:22:25;;;;;;;20.27;8.40;;;22.50;81.90;;;;;;5057955;28;20051;-67
2023/09/12 06:24:51;;;;;;;18.88;8.18;;;22.50;82.10;;;;;;5059704;28;20028;-67
2023/09/12 06:27:18;;;;;;;12.60;7.78;;;22.50;82.30;;;;;;5057227;28;20444;-67
2023/09/12 06:29:50;;;;;;;18.38;8.73;;;22.50;82.30;;;;;;5055018;28;20117;-67
2023/09/12 06:32:17;;;;;;;12.13;7.90;;;22.50;82.40;;;;;;5055003;28;20139;-67
2023/09/12 06:34:43;;;;;;;13.88;7.35;;;22.50;82.40;;;;;;5055874;28;20028;-67
2023/09/12 06:37:11;;;;;;;17.88;8.95;;;22.50;82.30;;;;;;5061005;28;20055;-67
2023/09/12 06:39:37;;;;;;;21.75;10.10;;;22.50;82.30;;;;;;5062668;28;20028;-69
2023/09/12 06:42:02;;;;;;;17.95;8.02;;;22.50;82.40;;;;;;5046758;28;20472;-66
2023/09/12 06:44:28;;;;;;;19.98;7.95;;;22.50;82.50;;;;;;5058082;28;20029;-68
2023/09/12 06:46:54;;;;;;;15.68;7.47;;;22.60;82.40;;;;;;5047213;28;20055;-68
2023/09/12 06:49:19;;;;;;;16.67;9.05;;;22.60;82.20;;;;;;5063838;28;20033;-67
2023/09/12 06:51:45;;;;;;;14.02;6.85;;;22.60;82.10;;;;;;5059157;28;20178;-68
2023/09/12 06:54:11;;;;;;;14.15;6.82;;;22.50;82.10;;;;;;5059847;28;20878;-68
2023/09/12 06:56:37;;;;;;;12.43;7.05;;;22.60;82.10;;;;;;5065553;28;20132;-67
2023/09/12 06:59:04;;;;;;;16.40;7.03;;;22.60;81.90;;;;;;5064509;28;20516;-67
2023/09/12 07:01:30;;;;;;;14.95;7.60;;;22.70;81.90;;;;;;5060450;28;20017;-67
2023/09/12 07:03:56;;;;;;;14.48;8.35;;;22.70;81.90;;;;;;5059771;28;20379;-69
2023/09/12 07:06:22;;;;;;;16.13;8.90;;;22.70;81.90;;;;;;5049162;28;20028;-68
2023/09/12 07:08:48;;;;;;;14.18;7.13;;;22.70;81.90;;;;;;5067966;28;20079;-69
2023/09/12 07:11:14;;;;;;;15.85;8.27;;;22.70;81.90;;;;;;5064419;28;20036;-68
2023/09/12 07:13:40;;;;;;;17.48;8.38;;;22.70;81.90;;;;;;5068973;28;20488;-67
2023/09/12 07:16:06;;;;;;;11.18;6.03;;;22.80;81.90;;;;;;5060573;28;20070;-67
2023/09/12 07:18:34;;;;;;;16.55;7.15;;;22.80;81.80;;;;;;5061194;28;20420;-67
2023/09/12 07:21:02;;;;;;;14.88;7.70;;;22.80;81.60;;;;;;5062599;28;20024;-67
2023/09/12 07:23:28;;;;;;;13.45;7.22;;;22.80;81.50;;;;;;5066859;28;20065;-68
2023/09/12 07:25:57;;;;;;;14.35;6.78;;;22.80;81.50;;;;;;5060074;28;20107;-65
2023/09/12 07:28:24;;;;;;;12.75;7.13;;;22.80;81.50;;;;;;5066575;28;20036;-65
2023/09/12 07:30:50;;;;;;;14.30;6.88;;;22.90;81.50;;;;;;5069034;28;20372;-65
2023/09/12 07:33:15;;;;;;;13.75;5.32;;;22.90;81.50;;;;;;5063445;28;20085;-65
2023/09/12 07:35:41;;;;;;;13.52;6.28;;;22.90;81.40;;;;;;5058887;28;20060;-64
2023/09/12 07:38:06;;;;;;;11.63;5.82;;;23.00;81.30;;;;;;5050672;28;20029;-66
2023/09/12 07:40:32;;;;;;;11.13;6.45;;;23.10;81.20;;;;;;5061339;28;20457;-65
2023/09/12 07:42:58;;;;;;;13.68;7.07;;;23.10;81.20;;;;;;5047126;28;20075;-65
2023/09/12 07:45:24;;;;;;;17.88;8.40;;;23.10;81.10;;;;;;5067354;28;20587;-66
2023/09/12 07:47:50;;;;;;;12.70;6.40;;;23.10;81.30;;;;;;5061653;28;20044;-67
2023/09/12 07:50:15;;;;;;;11.45;6.43;;;23.20;81.30;;;;;;5063225;28;20078;-68
2023/09/12 07:52:41;;;;;;;9.82;5.63;;;23.20;81.20;;;;;;5066764;28;20028;-68
2023/09/12 07:55:08;;;;;;;18.65;6.95;;;23.30;81.20;;;;;;5060531;28;20115;-66
2023/09/12 07:57:34;;;;;;;9.93;6.32;;;23.30;81.10;;;;;;5066657;28;20040;-67
2023/09/12 08:00:00;;;;;;;22.10;9.23;;;23.30;81.10;;;;;;5060008;28;20028;-67
2023/09/12 08:02:26;;;;;;;9.55;5.88;;;23.30;81.10;;;;;;5051056;28;20648;-67
2023/09/12 08:04:53;;;;;;;14.98;6.97;;;23.20;81.30;;;;;;5056914;28;20029;-67
2023/09/12 08:07:19;;;;;;;14.40;6.53;;;23.30;81.30;;;;;;5060106;28;20131;-66
2023/09/12 08:09:53;;;;;;;22.20;7.03;;;23.30;81.20;;;;;;5059749;28;20574;-68
2023/09/12 08:12:20;;;;;;;15.77;7.13;;;23.30;81.10;;;;;;5063540;28;20124;-67
2023/09/12 08:14:46;;;;;;;11.82;6.43;;;23.30;81.10;;;;;;5063141;28;20013;-65
2023/09/12 08:17:13;;;;;;;11.82;7.00;;;23.40;80.90;;;;;;5065731;28;20081;-66
2023/09/12 08:19:39;;;;;;;9.15;6.38;;;23.40;80.60;;;;;;5061331;28;20045;-66
2023/09/12 08:22:07;;;;;;;13.13;6.13;;;23.40;80.50;;;;;;5069095;28;20025;-66
2023/09/12 08:24:34;;;;;;;11.88;6.07;;;23.50;80.50;;;;;;5067528;28;20131;-66
2023/09/12 08:27:00;;;;;;;9.55;5.05;;;23.60;80.40;;;;;;5062070;28;20125;-65
2023/09/12 08:29:29;;;;;;;8.60;5.57;;;23.70;80.10;;;;;;5050980;28;20032;-67
2023/09/12 08:31:54;;;;;;;15.52;7.03;;;23.80;79.60;;;;;;5065649;28;20548;-66
2023/09/12 08:34:21;;;;;;;12.38;6.97;;;23.80;79.20;;;;;;5065215;28;20033;-64
2023/09/12 08:36:47;;;;;;;11.30;6.75;;;23.90;79.40;;;;;;5061919;28;20493;-65
2023/09/12 08:39:15;;;;;;;12.13;6.97;;;24.00;79.40;;;;;;5063776;28;20090;-66
2023/09/12 08:41:47;;;;;;;11.77;6.47;;;24.10;79.10;;;;;;5065209;28;21522;-66
2023/09/12 08:44:13;;;;;;;12.73;5.82;;;24.10;78.90;;;;;;5067106;28;20503;-67
2023/09/12 08:46:43;;;;;;;10.52;6.20;;;24.20;78.90;;;;;;5064650;28;20383;-68
2023/09/12 08:49:09;;;;;;;9.25;4.22;;;24.20;78.70;;;;;;5066457;28;20382;-64
2023/09/12 08:51:39;;;;;;;8.27;4.40;;;24.30;78.60;;;;;;5040916;28;20394;-65
2023/09/12 08:54:06;;;;;;;6.30;3.75;;;24.40;78.50;;;;;;5063622;28;20031;-66
2023/09/12 08:56:39;;;;;;;6.28;4.22;;;24.50;78.20;;;;;;5063167;28;20028;-64
2023/09/12 08:59:05;;;;;;;5.43;2.90;;;24.70;77.80;;;;;;5065086;28;20020;-63
2023/09/12 09:01:32;;;;;;;6.45;3.88;;;24.90;77.40;;;;;;5046803;28;20064;-63
2023/09/12 09:03:58;;;;;;;5.30;3.08;;;25.00;77.10;;;;;;5066563;28;20036;-65
2023/09/12 09:06:26;;;;;;;5.90;3.63;;;25.00;76.90;;;;;;5066876;28;20368;-65
2023/09/12 09:08:52;;;;;;;4.82;3.08;;;24.90;76.70;;;;;;5068288;28;20021;-64
2023/09/12 09:11:18;;;;;;;5.78;3.25;;;25.00;76.80;;;;;;5068959;28;20470;-64
2023/09/12 09:13:43;;;;;;;5.60;3.25;;;25.10;76.80;;;;;;5065168;28;20028;-65
2023/09/12 09:16:13;;;;;;;8.25;2.88;;;25.20;76.50;;;;;;5059795;28;20494;-64
2023/09/12 09:19:03;;;;;;;8.55;3.22;;;25.30;76.30;;;;;;5064010;28;20488;-64
2023/09/12 09:21:31;;;;;;;5.65;2.95;;;25.40;76.20;;;;;;5058952;28;20487;-65
2023/09/12 09:24:00;;;;;;;5.45;2.97;;;25.50;75.80;;;;;;5064087;28;20024;-64
2023/09/12 09:26:50;;;;;;;4.75;2.92;;;25.60;75.40;;;;;;5053772;28;20044;-64
2023/09/12 09:29:17;;;;;;;5.70;2.40;;;25.80;75.00;;;;;;5060539;28;20047;-65
2023/09/12 09:31:45;;;;;;;4.80;2.40;;;25.90;74.70;;;;;;5052852;28;20025;-63
2023/09/12 09:34:15;;;;;;;7.53;3.95;;;26.10;74.40;;;;;;5064794;28;20038;-63
2023/09/12 09:36:51;;;;;;;7.05;3.85;;;26.20;73.40;;;;;;5046113;28;20036;-64
2023/09/12 09:39:18;;;;;;;6.38;3.47;;;26.20;71.80;;;;;;5062969;28;20062;-64
2023/09/12 09:41:48;;;;;;;6.80;3.60;;;26.10;70.30;;;;;;5063898;28;20039;-64
2023/09/12 09:44:15;;;;;;;6.75;3.78;;;25.90;70.00;;;;;;5062802;28;20057;-64
2023/09/12 09:46:43;;;;;;;9.00;3.85;;;25.70;70.80;;;;;;5063458;28;20047;-64
2023/09/12 09:49:17;;;;;;;4.35;2.97;;;25.50;71.40;;;;;;5064563;28;20024;-64
2023/09/12 09:51:44;;;;;;;4.68;2.80;;;25.60;72.10;;;;;;5059853;28;20041;-63
2023/09/12 09:54:11;;;;;;;9.55;4.57;;;25.90;71.90;;;;;;5063482;28;20063;-64
2023/09/12 09:56:54;;;;;;;6.38;3.17;;;26.10;71.50;;;;;;5062591;28;20035;-63
2023/09/12 09:59:25;;;;;;;4.15;2.50;;;26.20;68.60;;;;;;5061166;28;20048;-63
2023/09/12 10:01:55;;;;;;;5.90;3.95;;;26.30;69.50;;;;;;5063048;28;20503;-63
2023/09/12 10:04:23;;;;;;;6.03;3.80;;;26.40;69.10;;;;;;5065678;28;20066;-64
2023/09/12 10:06:49;;;;;;;6.55;3.95;;;26.40;68.00;;;;;;5040335;28;20611;-65
2023/09/12 10:09:16;;;;;;;6.88;3.08;;;26.50;68.30;;;;;;5063618;28;20407;-65
2023/09/12 10:11:47;;;;;;;6.40;3.70;;;26.50;67.80;;;;;;5067171;28;20484;-65
2023/09/12 10:14:18;;;;;;;6.22;3.28;;;26.40;67.90;;;;;;5066327;28;20484;-65
2023/09/12 10:16:48;;;;;;;5.53;3.03;;;26.30;68.30;;;;;;5062370;28;20097;-65
2023/09/12 10:19:27;;;;;;;7.25;3.42;;;26.20;68.70;;;;;;5059171;28;20055;-65
2023/09/12 10:22:03;;;;;;;7.75;4.68;;;26.30;68.60;;;;;;5061620;28;20489;-65
2023/09/12 10:24:30;;;;;;;5.80;3.70;;;26.30;68.50;;;;;;5061642;28;20064;-64
2023/09/12 10:26:57;;;;;;;5.32;3.03;;;26.40;68.30;;;;;;5056608;28;20751;-64
2023/09/12 10:29:22;;;;;;;6.20;4.13;;;26.50;68.00;;;;;;5052969;28;20394;-64
2023/09/12 10:31:48;;;;;;;4.68;2.63;;;26.80;66.70;;;;;;5034107;28;20033;-64
2023/09/12 10:34:15;;;;;;;6.68;3.40;;;27.00;66.90;;;;;;5068548;28;20081;-64
2023/09/12 10:36:43;;;;;;;5.82;4.20;;;27.10;65.40;;;;;;5057876;28;20208;-64
2023/09/12 10:39:10;;;;;;;7.88;3.47;;;26.90;64.20;;;;;;5063874;28;20032;-63
2023/09/12 10:41:40;;;;;;;10.25;2.60;;;26.70;65.10;;;;;;5065401;28;20483;-64
2023/09/12 10:44:27;;;;;;;5.15;2.83;;;26.60;66.10;;;;;;5064641;28;20036;-64
2023/09/12 10:46:54;;;;;;;7.00;2.90;;;26.70;66.70;;;;;;5065395;28;20040;-64
2023/09/12 10:49:20;;;;;;;4.13;2.33;;;26.80;67.00;;;;;;5071884;28;20044;-64
2023/09/12 10:51:47;;;;;;;7.50;4.18;;;27.00;67.50;;;;;;5071003;28;20059;-64
2023/09/12 10:54:24;;;;;;;4.05;2.45;;;27.10;66.00;;;;;;5071116;28;20044;-63
2023/09/12 10:57:13;;;;;;;4.13;2.90;;;27.10;65.80;;;;;;5069197;28;20029;-62
2023/09/12 11:00:12;;;;;;;4.60;2.40;;;27.30;65.70;;;;;;5063327;28;20045;-64
2023/09/12 11:02:40;;;;;;;4.68;2.75;;;27.50;66.10;;;;;;5056676;28;20098;-64
2023/09/12 11:05:28;;;;;;;3.38;2.15;;;27.50;65.90;;;;;;5060148;28;20451;-63
2023/09/12 11:07:59;;;;;;;2.92;1.90;;;27.90;65.70;;;;;;5041705;28;20036;-63
2023/09/12 11:10:25;;;;;;;2.70;1.70;;;28.30;64.90;;;;;;5072405;28;20475;-64
2023/09/12 11:12:56;;;;;;;4.60;1.92;;;28.60;64.50;;;;;;5069580;28;20107;-64
2023/09/12 11:15:25;;;;;;;6.28;3.03;;;29.00;63.50;;;;;;5060299;28;20059;-64
2023/09/12 11:18:03;;;;;;;2.85;2.40;;;29.20;62.20;;;;;;5063824;28;20121;-64
2023/09/12 11:20:50;;;;;;;4.82;2.28;;;29.40;62.00;;;;;;5067836;28;20430;-63
2023/09/12 11:23:16;;;;;;;5.55;2.00;;;29.30;62.10;;;;;;5068881;28;20105;-63
2023/09/12 11:25:43;;;;;;;3.45;2.55;;;29.20;62.30;;;;;;5068282;28;20033;-62
2023/09/12 11:28:08;;;;;;;3.33;1.70;;;29.20;61.80;;;;;;5050857;28;20479;-62
2023/09/12 11:30:34;;;;;;;4.70;3.03;;;29.40;61.90;;;;;;5064248;28;20036;-63
2023/09/12 11:33:04;;;;;;;6.15;2.65;;;29.60;60.50;;;;;;5051746;28;20452;-62
2023/09/12 11:35:30;;;;;;;3.97;2.63;;;29.70;60.20;;;;;;5069692;28;20021;-65
2023/09/12 11:37:57;;;;;;;2.92;1.85;;;29.70;60.00;;;;;;5067849;28;20091;-64
2023/09/12 11:40:42;;;;;;;5.78;2.47;;;29.70;59.50;;;;;;5071274;28;20036;-64
2023/09/12 11:43:25;;;;;;;1.65;1.52;;;29.80;59.20;;;;;;5065143;28;20598;-63
2023/09/12 11:45:51;;;;;;;3.95;1.75;;;29.90;59.40;;;;;;5070042;28;20434;-64
2023/09/12 11:48:18;;;;;;;1.73;1.20;;;30.10;59.50;;;;;;5071003;28;20416;-64
2023/09/12 11:50:50;;;;;;;1.65;1.30;;;30.20;59.40;;;;;;5048894;28;20027;-64
2023/09/12 11:53:25;;;;;;;1.98;1.40;;;30.10;59.20;;;;;;5065224;28;20407;-63
2023/09/12 11:55:57;;;;;;;2.03;1.38;;;29.70;59.10;;;;;;5068127;28;20043;-64
2023/09/12 11:58:26;;;;;;;4.22;1.98;;;29.40;59.50;;;;;;5061967;28;20020;-64
2023/09/12 12:00:54;;;;;;;1.73;1.58;;;29.00;60.00;;;;;;5065131;28;20037;-63
2023/09/12 12:03:25;;;;;;;4.32;1.50;;;28.90;60.30;;;;;;5069216;28;20059;-63
2023/09/12 12:05:51;;;;;;;1.80;1.38;;;29.10;60.00;;;;;;5059025;28;20029;-63
2023/09/12 12:08:18;;;;;;;1.95;1.42;;;29.60;60.00;;;;;;5059403;28;20434;-63
2023/09/12 12:10:49;;;;;;;2.53;1.65;;;30.10;58.60;;;;;;5064327;28;20086;-63
2023/09/12 12:13:19;;;;;;;3.35;2.13;;;30.40;57.30;;;;;;5065233;28;20444;-63
2023/09/12 12:15:44;;;;;;;3.35;2.28;;;30.60;56.50;;;;;;5067326;28;20537;-65
2023/09/12 12:18:10;;;;;;;1.90;1.33;;;30.50;55.60;;;;;;5064292;28;20119;-63
2023/09/12 12:20:36;;;;;;;2.83;1.30;;;30.40;56.20;;;;;;5068286;28;20051;-64
2023/09/12 12:23:02;;;;;;;0.80;0.80;;;30.60;56.20;;;;;;5066719;28;20037;-63
2023/09/12 12:25:33;;;;;;;0.90;0.88;;;30.70;56.00;;;;;;5070691;28;20082;-63
2023/09/12 12:27:59;;;;;;;1.25;1.00;;;30.60;56.20;;;;;;5067541;28;20037;-63
2023/09/12 12:30:24;;;;;;;1.20;1.00;;;30.30;56.60;;;;;;5069112;28;20416;-63
2023/09/12 12:32:50;;;;;;;1.23;1.08;;;29.90;56.30;;;;;;5069091;28;20115;-64
2023/09/12 12:35:24;;;;;;;1.38;0.90;;;29.50;57.10;;;;;;5049960;28;20123;-64
2023/09/12 12:37:51;;;;;;;1.42;1.02;;;29.20;58.00;;;;;;5069351;28;20095;-64
2023/09/12 12:40:17;;;;;;;1.40;1.00;;;29.00;58.50;;;;;;5047287;28;20544;-64
2023/09/12 12:42:46;;;;;;;2.10;1.10;;;28.90;59.00;;;;;;5065901;28;20020;-64
2023/09/12 12:45:23;;;;;;;2.05;1.30;;;28.90;59.50;;;;;;5066971;28;20384;-64